sensor_id;sensor_type;location;lat;lon;timestamp;P1;durP1;ratioP1;P2;durP2;ratioP2
44145;SDS011;29809;52.432;4.780;2024-03-29T00:02:18;1.85;;;1.33;;
44145;SDS011;29809;52.432;4.780;2024-03-29T00:04:44;2.75;;;0.88;;
44145;SDS011;29809;52.432;4.780;2024-03-29T00:07:09;1.98;;;1.10;;
44145;SDS011;29809;52.432;4.780;2024-03-29T00:09:34;0.80;;;0.57;;
44145;SDS011;29809;52.432;4.780;2024-03-29T00:11:59;2.08;;;0.80;;
44145;SDS011;29809;52.432;4.780;2024-03-29T00:14:25;3.60;;;1.10;;
44145;SDS011;29809;52.432;4.780;2024-03-29T00:16:51;4.82;;;1.10;;
44145;SDS011;29809;52.432;4.780;2024-03-29T00:19:16;2.58;;;1.13;;
44145;SDS011;29809;52.432;4.780;2024-03-29T00:21:41;2.05;;;0.80;;
44145;SDS011;29809;52.432;4.780;2024-03-29T00:24:07;3.22;;;0.90;;
44145;SDS011;29809;52.432;4.780;2024-03-29T00:26:35;2.70;;;1.38;;
44145;SDS011;29809;52.432;4.780;2024-03-29T00:29:00;1.23;;;1.13;;
44145;SDS011;29809;52.432;4.780;2024-03-29T00:31:25;1.45;;;1.00;;
44145;SDS011;29809;52.432;4.780;2024-03-29T00:33:50;2.03;;;1.20;;
44145;SDS011;29809;52.432;4.780;2024-03-29T00:36:15;2.10;;;1.10;;
44145;SDS011;29809;52.432;4.780;2024-03-29T00:38:41;3.40;;;1.13;;
44145;SDS011;29809;52.432;4.780;2024-03-29T00:41:06;2.15;;;0.85;;
44145;SDS011;29809;52.432;4.780;2024-03-29T00:43:31;4.45;;;1.10;;
44145;SDS011;29809;52.432;4.780;2024-03-29T00:45:57;1.55;;;1.15;;
44145;SDS011;29809;52.432;4.780;2024-03-29T00:48:22;2.17;;;0.73;;
44145;SDS011;29809;52.432;4.780;2024-03-29T00:50:47;2.55;;;1.15;;
44145;SDS011;29809;52.432;4.780;2024-03-29T00:53:12;1.52;;;0.88;;
44145;SDS011;29809;52.432;4.780;2024-03-29T00:55:37;1.08;;;0.90;;
44145;SDS011;29809;52.432;4.780;2024-03-29T00:58:03;2.88;;;1.17;;
44145;SDS011;29809;52.432;4.780;2024-03-29T01:00:28;4.95;;;1.20;;
44145;SDS011;29809;52.432;4.780;2024-03-29T01:02:53;2.13;;;1.17;;
44145;SDS011;29809;52.432;4.780;2024-03-29T01:05:18;2.75;;;1.00;;
44145;SDS011;29809;52.432;4.780;2024-03-29T01:07:44;2.13;;;0.98;;
44145;SDS011;29809;52.432;4.780;2024-03-29T01:10:09;1.25;;;0.82;;
44145;SDS011;29809;52.432;4.780;2024-03-29T01:12:35;1.63;;;1.00;;
44145;SDS011;29809;52.432;4.780;2024-03-29T01:15:00;1.52;;;0.93;;
44145;SDS011;29809;52.432;4.780;2024-03-29T01:17:25;3.42;;;1.30;;
44145;SDS011;29809;52.432;4.780;2024-03-29T01:19:50;1.42;;;0.90;;
44145;SDS011;29809;52.432;4.780;2024-03-29T01:22:15;2.67;;;0.90;;
44145;SDS011;29809;52.432;4.780;2024-03-29T01:24:41;1.85;;;0.85;;
44145;SDS011;29809;52.432;4.780;2024-03-29T01:27:06;1.95;;;1.02;;
44145;SDS011;29809;52.432;4.780;2024-03-29T01:29:31;2.10;;;0.98;;
44145;SDS011;29809;52.432;4.780;2024-03-29T01:31:56;1.88;;;0.90;;
44145;SDS011;29809;52.432;4.780;2024-03-29T01:34:22;1.58;;;1.20;;
44145;SDS011;29809;52.432;4.780;2024-03-29T01:36:47;1.95;;;1.10;;
44145;SDS011;29809;52.432;4.780;2024-03-29T01:39:12;0.85;;;0.82;;
44145;SDS011;29809;52.432;4.780;2024-03-29T01:41:40;1.10;;;1.00;;
44145;SDS011;29809;52.432;4.780;2024-03-29T01:44:06;2.17;;;1.20;;
44145;SDS011;29809;52.432;4.780;2024-03-29T01:46:31;2.58;;;1.20;;
44145;SDS011;29809;52.432;4.780;2024-03-29T01:48:59;2.88;;;1.10;;
44145;SDS011;29809;52.432;4.780;2024-03-29T01:51:25;2.53;;;1.02;;
44145;SDS011;29809;52.432;4.780;2024-03-29T01:53:50;3.35;;;1.23;;
44145;SDS011;29809;52.432;4.780;2024-03-29T01:56:17;1.73;;;0.90;;
44145;SDS011;29809;52.432;4.780;2024-03-29T01:58:44;1.45;;;0.75;;
44145;SDS011;29809;52.432;4.780;2024-03-29T02:01:10;2.78;;;1.05;;
44145;SDS011;29809;52.432;4.780;2024-03-29T02:03:36;2.08;;;0.90;;
44145;SDS011;29809;52.432;4.780;2024-03-29T02:06:02;4.00;;;1.08;;
44145;SDS011;29809;52.432;4.780;2024-03-29T02:08:28;2.42;;;1.20;;
44145;SDS011;29809;52.432;4.780;2024-03-29T02:10:54;2.55;;;1.13;;
44145;SDS011;29809;52.432;4.780;2024-03-29T02:13:19;1.83;;;0.90;;
44145;SDS011;29809;52.432;4.780;2024-03-29T02:15:44;1.25;;;0.85;;
44145;SDS011;29809;52.432;4.780;2024-03-29T02:18:09;2.13;;;0.80;;
44145;SDS011;29809;52.432;4.780;2024-03-29T02:20:35;1.95;;;1.00;;
44145;SDS011;29809;52.432;4.780;2024-03-29T02:23:11;1.77;;;0.90;;
44145;SDS011;29809;52.432;4.780;2024-03-29T02:25:38;3.30;;;1.13;;
44145;SDS011;29809;52.432;4.780;2024-03-29T02:28:03;1.30;;;0.85;;
44145;SDS011;29809;52.432;4.780;2024-03-29T02:30:29;1.30;;;0.55;;
44145;SDS011;29809;52.432;4.780;2024-03-29T02:32:55;1.58;;;0.80;;
44145;SDS011;29809;52.432;4.780;2024-03-29T02:35:20;1.92;;;1.15;;
44145;SDS011;29809;52.432;4.780;2024-03-29T02:37:46;0.98;;;0.90;;
44145;SDS011;29809;52.432;4.780;2024-03-29T02:40:11;2.97;;;0.95;;
44145;SDS011;29809;52.432;4.780;2024-03-29T02:42:36;1.15;;;0.68;;
44145;SDS011;29809;52.432;4.780;2024-03-29T02:45:02;1.80;;;0.95;;
44145;SDS011;29809;52.432;4.780;2024-03-29T02:47:28;1.15;;;0.88;;
44145;SDS011;29809;52.432;4.780;2024-03-29T02:49:53;2.58;;;1.30;;
44145;SDS011;29809;52.432;4.780;2024-03-29T02:52:18;1.33;;;0.80;;
44145;SDS011;29809;52.432;4.780;2024-03-29T02:54:43;2.92;;;0.93;;
44145;SDS011;29809;52.432;4.780;2024-03-29T02:57:08;1.17;;;0.90;;
44145;SDS011;29809;52.432;4.780;2024-03-29T02:59:34;1.55;;;0.85;;
44145;SDS011;29809;52.432;4.780;2024-03-29T03:01:59;1.30;;;0.70;;
44145;SDS011;29809;52.432;4.780;2024-03-29T03:04:24;2.17;;;1.13;;
44145;SDS011;29809;52.432;4.780;2024-03-29T03:06:49;2.28;;;1.08;;
44145;SDS011;29809;52.432;4.780;2024-03-29T03:09:15;1.30;;;0.65;;
44145;SDS011;29809;52.432;4.780;2024-03-29T03:11:58;1.15;;;0.82;;
44145;SDS011;29809;52.432;4.780;2024-03-29T03:14:24;1.83;;;0.93;;
44145;SDS011;29809;52.432;4.780;2024-03-29T03:16:49;1.33;;;0.85;;
44145;SDS011;29809;52.432;4.780;2024-03-29T03:19:14;2.10;;;1.00;;
44145;SDS011;29809;52.432;4.780;2024-03-29T03:21:39;1.42;;;1.13;;
44145;SDS011;29809;52.432;4.780;2024-03-29T03:24:05;1.88;;;0.88;;
44145;SDS011;29809;52.432;4.780;2024-03-29T03:26:30;2.17;;;1.10;;
44145;SDS011;29809;52.432;4.780;2024-03-29T03:28:55;0.77;;;0.70;;
44145;SDS011;29809;52.432;4.780;2024-03-29T03:31:21;1.52;;;0.85;;
44145;SDS011;29809;52.432;4.780;2024-03-29T03:33:46;1.50;;;0.80;;
44145;SDS011;29809;52.432;4.780;2024-03-29T03:36:11;2.35;;;1.10;;
44145;SDS011;29809;52.432;4.780;2024-03-29T03:38:36;2.08;;;1.00;;
44145;SDS011;29809;52.432;4.780;2024-03-29T03:41:03;2.25;;;1.10;;
44145;SDS011;29809;52.432;4.780;2024-03-29T03:43:28;1.17;;;0.85;;
44145;SDS011;29809;52.432;4.780;2024-03-29T03:45:54;1.48;;;1.00;;
44145;SDS011;29809;52.432;4.780;2024-03-29T03:48:19;1.10;;;0.90;;
44145;SDS011;29809;52.432;4.780;2024-03-29T03:50:44;1.38;;;1.00;;
44145;SDS011;29809;52.432;4.780;2024-03-29T03:53:09;4.15;;;1.02;;
44145;SDS011;29809;52.432;4.780;2024-03-29T03:55:35;1.90;;;1.00;;
44145;SDS011;29809;52.432;4.780;2024-03-29T03:58:00;1.25;;;1.05;;
44145;SDS011;29809;52.432;4.780;2024-03-29T04:00:25;2.05;;;1.10;;
44145;SDS011;29809;52.432;4.780;2024-03-29T04:02:51;2.60;;;1.10;;
44145;SDS011;29809;52.432;4.780;2024-03-29T04:05:20;2.83;;;1.08;;
44145;SDS011;29809;52.432;4.780;2024-03-29T04:07:45;1.33;;;0.75;;
44145;SDS011;29809;52.432;4.780;2024-03-29T04:10:10;1.88;;;0.90;;
44145;SDS011;29809;52.432;4.780;2024-03-29T04:12:36;0.80;;;0.80;;
44145;SDS011;29809;52.432;4.780;2024-03-29T04:15:01;2.47;;;1.00;;
44145;SDS011;29809;52.432;4.780;2024-03-29T04:17:28;0.65;;;0.63;;
44145;SDS011;29809;52.432;4.780;2024-03-29T04:19:55;1.83;;;0.85;;
44145;SDS011;29809;52.432;4.780;2024-03-29T04:22:20;1.50;;;0.75;;
44145;SDS011;29809;52.432;4.780;2024-03-29T04:24:45;1.38;;;0.57;;
44145;SDS011;29809;52.432;4.780;2024-03-29T04:27:10;2.55;;;1.23;;
44145;SDS011;29809;52.432;4.780;2024-03-29T04:29:36;1.65;;;0.88;;
44145;SDS011;29809;52.432;4.780;2024-03-29T04:32:01;1.80;;;0.90;;
44145;SDS011;29809;52.432;4.780;2024-03-29T04:34:26;1.65;;;1.00;;
44145;SDS011;29809;52.432;4.780;2024-03-29T04:36:51;1.88;;;0.90;;
44145;SDS011;29809;52.432;4.780;2024-03-29T04:39:17;1.75;;;0.80;;
44145;SDS011;29809;52.432;4.780;2024-03-29T04:41:42;1.88;;;0.80;;
44145;SDS011;29809;52.432;4.780;2024-03-29T04:44:07;2.53;;;1.00;;
44145;SDS011;29809;52.432;4.780;2024-03-29T04:46:33;2.08;;;1.00;;
44145;SDS011;29809;52.432;4.780;2024-03-29T04:48:58;1.80;;;0.80;;
44145;SDS011;29809;52.432;4.780;2024-03-29T04:51:24;0.90;;;0.60;;
44145;SDS011;29809;52.432;4.780;2024-03-29T04:53:49;0.95;;;0.80;;
44145;SDS011;29809;52.432;4.780;2024-03-29T04:56:14;3.60;;;1.20;;
44145;SDS011;29809;52.432;4.780;2024-03-29T04:58:40;1.50;;;0.75;;
44145;SDS011;29809;52.432;4.780;2024-03-29T05:01:05;2.53;;;1.10;;
44145;SDS011;29809;52.432;4.780;2024-03-29T05:03:30;1.67;;;0.85;;
44145;SDS011;29809;52.432;4.780;2024-03-29T05:05:56;0.68;;;0.65;;
44145;SDS011;29809;52.432;4.780;2024-03-29T05:08:21;1.58;;;0.95;;
44145;SDS011;29809;52.432;4.780;2024-03-29T05:10:48;1.90;;;1.10;;
44145;SDS011;29809;52.432;4.780;2024-03-29T05:13:13;2.45;;;1.02;;
44145;SDS011;29809;52.432;4.780;2024-03-29T05:15:38;0.65;;;0.63;;
44145;SDS011;29809;52.432;4.780;2024-03-29T05:18:03;1.98;;;1.00;;
44145;SDS011;29809;52.432;4.780;2024-03-29T05:20:29;0.88;;;0.80;;
44145;SDS011;29809;52.432;4.780;2024-03-29T05:22:54;0.70;;;0.70;;
44145;SDS011;29809;52.432;4.780;2024-03-29T05:25:20;1.85;;;0.98;;
44145;SDS011;29809;52.432;4.780;2024-03-29T05:27:45;2.10;;;1.02;;
44145;SDS011;29809;52.432;4.780;2024-03-29T05:30:10;0.90;;;0.88;;
44145;SDS011;29809;52.432;4.780;2024-03-29T05:32:35;1.65;;;1.10;;
44145;SDS011;29809;52.432;4.780;2024-03-29T05:35:01;1.23;;;1.13;;
44145;SDS011;29809;52.432;4.780;2024-03-29T05:37:26;1.25;;;1.08;;
44145;SDS011;29809;52.432;4.780;2024-03-29T05:39:52;1.30;;;1.20;;
44145;SDS011;29809;52.432;4.780;2024-03-29T05:42:27;2.00;;;1.50;;
44145;SDS011;29809;52.432;4.780;2024-03-29T05:44:52;1.80;;;1.27;;
44145;SDS011;29809;52.432;4.780;2024-03-29T05:47:18;3.15;;;1.33;;
44145;SDS011;29809;52.432;4.780;2024-03-29T05:49:43;2.92;;;1.60;;
44145;SDS011;29809;52.432;4.780;2024-03-29T05:52:08;5.60;;;1.65;;
44145;SDS011;29809;52.432;4.780;2024-03-29T05:54:33;2.33;;;1.10;;
44145;SDS011;29809;52.432;4.780;2024-03-29T05:56:59;1.45;;;1.33;;
44145;SDS011;29809;52.432;4.780;2024-03-29T05:59:24;2.00;;;1.25;;
44145;SDS011;29809;52.432;4.780;2024-03-29T06:01:49;2.95;;;1.10;;
44145;SDS011;29809;52.432;4.780;2024-03-29T06:04:14;2.30;;;1.13;;
44145;SDS011;29809;52.432;4.780;2024-03-29T06:06:44;0.80;;;0.60;;
44145;SDS011;29809;52.432;4.780;2024-03-29T06:09:09;1.73;;;0.93;;
44145;SDS011;29809;52.432;4.780;2024-03-29T06:11:35;1.73;;;0.55;;
44145;SDS011;29809;52.432;4.780;2024-03-29T06:14:00;25.85;;;6.45;;
44145;SDS011;29809;52.432;4.780;2024-03-29T06:16:27;48.45;;;12.40;;
44145;SDS011;29809;52.432;4.780;2024-03-29T06:19:11;56.80;;;18.08;;
44145;SDS011;29809;52.432;4.780;2024-03-29T06:21:36;52.40;;;16.15;;
44145;SDS011;29809;52.432;4.780;2024-03-29T06:24:07;44.90;;;16.42;;
44145;SDS011;29809;52.432;4.780;2024-03-29T06:26:33;34.75;;;14.32;;
44145;SDS011;29809;52.432;4.780;2024-03-29T06:28:59;42.00;;;14.98;;
44145;SDS011;29809;52.432;4.780;2024-03-29T06:31:24;32.08;;;11.88;;
44145;SDS011;29809;52.432;4.780;2024-03-29T06:33:50;29.98;;;12.52;;
44145;SDS011;29809;52.432;4.780;2024-03-29T06:36:15;28.23;;;10.70;;
44145;SDS011;29809;52.432;4.780;2024-03-29T06:38:40;23.63;;;9.38;;
44145;SDS011;29809;52.432;4.780;2024-03-29T06:41:05;22.35;;;9.02;;
44145;SDS011;29809;52.432;4.780;2024-03-29T06:43:31;18.52;;;8.23;;
44145;SDS011;29809;52.432;4.780;2024-03-29T06:45:56;15.55;;;7.70;;
44145;SDS011;29809;52.432;4.780;2024-03-29T06:48:22;21.80;;;8.02;;
44145;SDS011;29809;52.432;4.780;2024-03-29T06:50:47;22.70;;;8.13;;
44145;SDS011;29809;52.432;4.780;2024-03-29T06:53:14;17.92;;;7.05;;
44145;SDS011;29809;52.432;4.780;2024-03-29T06:55:40;16.90;;;7.18;;
44145;SDS011;29809;52.432;4.780;2024-03-29T06:58:05;14.45;;;5.53;;
44145;SDS011;29809;52.432;4.780;2024-03-29T07:00:30;16.20;;;6.43;;
44145;SDS011;29809;52.432;4.780;2024-03-29T07:02:55;9.95;;;5.00;;
44145;SDS011;29809;52.432;4.780;2024-03-29T07:05:20;12.35;;;4.47;;
44145;SDS011;29809;52.432;4.780;2024-03-29T07:07:46;10.73;;;4.05;;
44145;SDS011;29809;52.432;4.780;2024-03-29T07:10:12;7.45;;;3.50;;
44145;SDS011;29809;52.432;4.780;2024-03-29T07:12:37;7.38;;;3.97;;
44145;SDS011;29809;52.432;4.780;2024-03-29T07:15:03;7.60;;;3.70;;
44145;SDS011;29809;52.432;4.780;2024-03-29T07:17:28;6.15;;;3.28;;
44145;SDS011;29809;52.432;4.780;2024-03-29T07:19:53;4.97;;;2.90;;
44145;SDS011;29809;52.432;4.780;2024-03-29T07:22:18;5.70;;;3.28;;
44145;SDS011;29809;52.432;4.780;2024-03-29T07:24:44;5.20;;;3.00;;
44145;SDS011;29809;52.432;4.780;2024-03-29T07:27:10;5.38;;;2.13;;
44145;SDS011;29809;52.432;4.780;2024-03-29T07:29:37;5.22;;;2.58;;
44145;SDS011;29809;52.432;4.780;2024-03-29T07:32:03;6.25;;;2.10;;
44145;SDS011;29809;52.432;4.780;2024-03-29T07:34:28;3.50;;;1.92;;
44145;SDS011;29809;52.432;4.780;2024-03-29T07:36:53;3.25;;;1.95;;
44145;SDS011;29809;52.432;4.780;2024-03-29T07:39:18;5.40;;;1.60;;
44145;SDS011;29809;52.432;4.780;2024-03-29T07:41:45;3.20;;;1.75;;
44145;SDS011;29809;52.432;4.780;2024-03-29T07:44:10;4.38;;;1.60;;
44145;SDS011;29809;52.432;4.780;2024-03-29T07:46:35;3.00;;;1.88;;
44145;SDS011;29809;52.432;4.780;2024-03-29T07:49:01;3.13;;;1.58;;
44145;SDS011;29809;52.432;4.780;2024-03-29T07:51:27;5.38;;;2.00;;
44145;SDS011;29809;52.432;4.780;2024-03-29T07:53:53;4.00;;;1.60;;
44145;SDS011;29809;52.432;4.780;2024-03-29T07:56:18;1.35;;;0.98;;
44145;SDS011;29809;52.432;4.780;2024-03-29T07:58:43;2.00;;;1.48;;
44145;SDS011;29809;52.432;4.780;2024-03-29T08:01:09;2.22;;;1.52;;
44145;SDS011;29809;52.432;4.780;2024-03-29T08:03:34;1.92;;;1.63;;
44145;SDS011;29809;52.432;4.780;2024-03-29T08:06:03;2.70;;;1.70;;
44145;SDS011;29809;52.432;4.780;2024-03-29T08:08:32;4.38;;;1.65;;
44145;SDS011;29809;52.432;4.780;2024-03-29T08:10:57;2.70;;;1.60;;
44145;SDS011;29809;52.432;4.780;2024-03-29T08:13:23;2.33;;;1.75;;
44145;SDS011;29809;52.432;4.780;2024-03-29T08:15:50;2.28;;;1.30;;
44145;SDS011;29809;52.432;4.780;2024-03-29T08:18:20;2.33;;;1.90;;
44145;SDS011;29809;52.432;4.780;2024-03-29T08:20:46;1.92;;;1.05;;
44145;SDS011;29809;52.432;4.780;2024-03-29T08:23:11;1.35;;;1.20;;
44145;SDS011;29809;52.432;4.780;2024-03-29T08:25:37;2.00;;;1.50;;
44145;SDS011;29809;52.432;4.780;2024-03-29T08:28:02;1.77;;;1.20;;
44145;SDS011;29809;52.432;4.780;2024-03-29T08:30:27;1.88;;;1.20;;
44145;SDS011;29809;52.432;4.780;2024-03-29T08:32:59;2.42;;;1.20;;
44145;SDS011;29809;52.432;4.780;2024-03-29T08:35:27;2.72;;;1.33;;
44145;SDS011;29809;52.432;4.780;2024-03-29T08:37:52;1.55;;;0.85;;
44145;SDS011;29809;52.432;4.780;2024-03-29T08:40:17;1.42;;;0.88;;
44145;SDS011;29809;52.432;4.780;2024-03-29T08:42:43;1.98;;;1.35;;
44145;SDS011;29809;52.432;4.780;2024-03-29T08:45:08;1.38;;;0.98;;
44145;SDS011;29809;52.432;4.780;2024-03-29T08:47:35;3.53;;;1.00;;
44145;SDS011;29809;52.432;4.780;2024-03-29T08:50:00;1.27;;;0.85;;
44145;SDS011;29809;52.432;4.780;2024-03-29T08:52:25;1.38;;;1.00;;
44145;SDS011;29809;52.432;4.780;2024-03-29T08:54:51;1.33;;;0.88;;
44145;SDS011;29809;52.432;4.780;2024-03-29T08:57:16;2.33;;;1.00;;
44145;SDS011;29809;52.432;4.780;2024-03-29T08:59:41;2.13;;;1.00;;
44145;SDS011;29809;52.432;4.780;2024-03-29T09:02:07;3.33;;;1.00;;
44145;SDS011;29809;52.432;4.780;2024-03-29T09:04:33;3.17;;;1.30;;
44145;SDS011;29809;52.432;4.780;2024-03-29T09:06:59;3.08;;;1.30;;
44145;SDS011;29809;52.432;4.780;2024-03-29T09:09:27;1.20;;;1.00;;
44145;SDS011;29809;52.432;4.780;2024-03-29T09:11:52;0.70;;;0.70;;
44145;SDS011;29809;52.432;4.780;2024-03-29T09:14:17;2.67;;;0.85;;
44145;SDS011;29809;52.432;4.780;2024-03-29T09:16:42;1.10;;;0.90;;
44145;SDS011;29809;52.432;4.780;2024-03-29T09:19:07;1.98;;;0.90;;
44145;SDS011;29809;52.432;4.780;2024-03-29T09:21:33;0.85;;;0.80;;
44145;SDS011;29809;52.432;4.780;2024-03-29T09:23:58;1.85;;;0.88;;
44145;SDS011;29809;52.432;4.780;2024-03-29T09:26:24;1.48;;;0.98;;
44145;SDS011;29809;52.432;4.780;2024-03-29T09:28:50;1.63;;;1.02;;
44145;SDS011;29809;52.432;4.780;2024-03-29T09:31:15;1.65;;;1.05;;
44145;SDS011;29809;52.432;4.780;2024-03-29T09:33:40;0.95;;;0.88;;
44145;SDS011;29809;52.432;4.780;2024-03-29T09:36:05;0.70;;;0.70;;
44145;SDS011;29809;52.432;4.780;2024-03-29T09:38:31;1.92;;;0.98;;
44145;SDS011;29809;52.432;4.780;2024-03-29T09:41:18;0.93;;;0.93;;
44145;SDS011;29809;52.432;4.780;2024-03-29T09:43:42;1.23;;;1.10;;
44145;SDS011;29809;52.432;4.780;2024-03-29T09:46:09;2.20;;;1.00;;
44145;SDS011;29809;52.432;4.780;2024-03-29T09:48:35;2.33;;;1.20;;
44145;SDS011;29809;52.432;4.780;2024-03-29T09:51:03;1.80;;;1.10;;
44145;SDS011;29809;52.432;4.780;2024-03-29T09:53:29;1.15;;;0.70;;
44145;SDS011;29809;52.432;4.780;2024-03-29T09:55:54;4.18;;;1.08;;
44145;SDS011;29809;52.432;4.780;2024-03-29T09:58:19;1.23;;;1.10;;
44145;SDS011;29809;52.432;4.780;2024-03-29T10:00:44;0.98;;;0.80;;
44145;SDS011;29809;52.432;4.780;2024-03-29T10:03:09;1.10;;;0.98;;
44145;SDS011;29809;52.432;4.780;2024-03-29T10:05:35;2.38;;;0.98;;
44145;SDS011;29809;52.432;4.780;2024-03-29T10:08:01;3.47;;;1.23;;
44145;SDS011;29809;52.432;4.780;2024-03-29T10:10:32;2.05;;;1.20;;
44145;SDS011;29809;52.432;4.780;2024-03-29T10:12:57;1.00;;;0.90;;
44145;SDS011;29809;52.432;4.780;2024-03-29T10:15:22;1.38;;;1.23;;
44145;SDS011;29809;52.432;4.780;2024-03-29T10:17:51;1.05;;;0.95;;
44145;SDS011;29809;52.432;4.780;2024-03-29T10:20:17;2.15;;;1.05;;
44145;SDS011;29809;52.432;4.780;2024-03-29T10:22:43;1.25;;;1.10;;
44145;SDS011;29809;52.432;4.780;2024-03-29T10:25:09;1.10;;;0.85;;
44145;SDS011;29809;52.432;4.780;2024-03-29T10:27:34;1.17;;;0.95;;
44145;SDS011;29809;52.432;4.780;2024-03-29T10:29:59;2.08;;;1.17;;
44145;SDS011;29809;52.432;4.780;2024-03-29T10:32:24;1.27;;;0.98;;
44145;SDS011;29809;52.432;4.780;2024-03-29T10:34:50;1.23;;;1.10;;
44145;SDS011;29809;52.432;4.780;2024-03-29T10:37:16;1.30;;;0.88;;
44145;SDS011;29809;52.432;4.780;2024-03-29T10:39:43;1.20;;;1.00;;
44145;SDS011;29809;52.432;4.780;2024-03-29T10:42:08;2.70;;;1.00;;
44145;SDS011;29809;52.432;4.780;2024-03-29T10:44:36;1.10;;;1.00;;
44145;SDS011;29809;52.432;4.780;2024-03-29T10:47:03;1.42;;;0.80;;
44145;SDS011;29809;52.432;4.780;2024-03-29T10:49:29;3.42;;;0.90;;
44145;SDS011;29809;52.432;4.780;2024-03-29T10:51:54;1.33;;;0.90;;
44145;SDS011;29809;52.432;4.780;2024-03-29T10:54:22;1.95;;;0.80;;
44145;SDS011;29809;52.432;4.780;2024-03-29T10:56:47;2.05;;;0.80;;
44145;SDS011;29809;52.432;4.780;2024-03-29T10:59:24;1.30;;;0.80;;
44145;SDS011;29809;52.432;4.780;2024-03-29T11:01:52;1.40;;;0.95;;
44145;SDS011;29809;52.432;4.780;2024-03-29T11:04:22;0.77;;;0.77;;
44145;SDS011;29809;52.432;4.780;2024-03-29T11:06:47;1.88;;;0.80;;
44145;SDS011;29809;52.432;4.780;2024-03-29T11:09:15;1.08;;;0.80;;
44145;SDS011;29809;52.432;4.780;2024-03-29T11:11:42;0.77;;;0.77;;
44145;SDS011;29809;52.432;4.780;2024-03-29T11:14:10;1.17;;;1.08;;
44145;SDS011;29809;52.432;4.780;2024-03-29T11:16:37;1.77;;;1.00;;
44145;SDS011;29809;52.432;4.780;2024-03-29T11:19:06;1.35;;;0.90;;
44145;SDS011;29809;52.432;4.780;2024-03-29T11:21:32;0.70;;;0.70;;
44145;SDS011;29809;52.432;4.780;2024-03-29T11:23:57;0.80;;;0.80;;
44145;SDS011;29809;52.432;4.780;2024-03-29T11:26:26;0.50;;;0.50;;
44145;SDS011;29809;52.432;4.780;2024-03-29T11:28:52;1.42;;;0.80;;
44145;SDS011;29809;52.432;4.780;2024-03-29T11:31:21;0.95;;;0.73;;
44145;SDS011;29809;52.432;4.780;2024-03-29T11:33:47;1.48;;;1.35;;
44145;SDS011;29809;52.432;4.780;2024-03-29T11:38:39;1.60;;;1.13;;
44145;SDS011;29809;52.432;4.780;2024-03-29T11:41:09;0.98;;;0.82;;
44145;SDS011;29809;52.432;4.780;2024-03-29T11:43:35;1.60;;;0.85;;
44145;SDS011;29809;52.432;4.780;2024-03-29T11:46:01;1.25;;;1.00;;
44145;SDS011;29809;52.432;4.780;2024-03-29T11:48:28;2.15;;;0.90;;
44145;SDS011;29809;52.432;4.780;2024-03-29T11:50:53;1.58;;;1.00;;
44145;SDS011;29809;52.432;4.780;2024-03-29T11:53:19;1.60;;;1.20;;
44145;SDS011;29809;52.432;4.780;2024-03-29T11:55:45;1.33;;;1.23;;
44145;SDS011;29809;52.432;4.780;2024-03-29T11:58:10;1.23;;;1.08;;
44145;SDS011;29809;52.432;4.780;2024-03-29T12:00:35;2.35;;;1.20;;
44145;SDS011;29809;52.432;4.780;2024-03-29T12:03:01;2.00;;;1.30;;
44145;SDS011;29809;52.432;4.780;2024-03-29T12:05:27;1.52;;;0.82;;
44145;SDS011;29809;52.432;4.780;2024-03-29T12:07:52;1.13;;;0.90;;
44145;SDS011;29809;52.432;4.780;2024-03-29T12:10:18;1.98;;;1.00;;
44145;SDS011;29809;52.432;4.780;2024-03-29T12:12:43;1.15;;;1.00;;
44145;SDS011;29809;52.432;4.780;2024-03-29T12:15:09;2.60;;;1.33;;
44145;SDS011;29809;52.432;4.780;2024-03-29T12:17:34;2.08;;;1.27;;
44145;SDS011;29809;52.432;4.780;2024-03-29T12:20:03;1.60;;;1.20;;
44145;SDS011;29809;52.432;4.780;2024-03-29T12:22:36;2.35;;;1.70;;
44145;SDS011;29809;52.432;4.780;2024-03-29T12:25:01;1.75;;;1.35;;
44145;SDS011;29809;52.432;4.780;2024-03-29T12:27:27;1.35;;;1.23;;
44145;SDS011;29809;52.432;4.780;2024-03-29T12:29:52;2.28;;;1.30;;
44145;SDS011;29809;52.432;4.780;2024-03-29T12:32:20;3.15;;;1.40;;
44145;SDS011;29809;52.432;4.780;2024-03-29T12:34:46;1.58;;;1.27;;
44145;SDS011;29809;52.432;4.780;2024-03-29T12:37:12;1.63;;;1.10;;
44145;SDS011;29809;52.432;4.780;2024-03-29T12:39:37;1.30;;;1.00;;
44145;SDS011;29809;52.432;4.780;2024-03-29T12:42:04;4.90;;;1.58;;
44145;SDS011;29809;52.432;4.780;2024-03-29T12:44:30;1.95;;;1.15;;
44145;SDS011;29809;52.432;4.780;2024-03-29T12:46:57;1.70;;;1.40;;
44145;SDS011;29809;52.432;4.780;2024-03-29T12:49:24;2.05;;;1.60;;
44145;SDS011;29809;52.432;4.780;2024-03-29T12:51:49;2.90;;;1.50;;
44145;SDS011;29809;52.432;4.780;2024-03-29T12:54:14;1.80;;;1.15;;
44145;SDS011;29809;52.432;4.780;2024-03-29T12:56:39;1.70;;;1.42;;
44145;SDS011;29809;52.432;4.780;2024-03-29T12:59:07;2.53;;;1.40;;
44145;SDS011;29809;52.432;4.780;2024-03-29T13:01:32;2.25;;;1.48;;
44145;SDS011;29809;52.432;4.780;2024-03-29T13:03:57;2.03;;;1.40;;
44145;SDS011;29809;52.432;4.780;2024-03-29T13:06:23;2.15;;;1.52;;
44145;SDS011;29809;52.432;4.780;2024-03-29T13:08:48;2.75;;;1.55;;
44145;SDS011;29809;52.432;4.780;2024-03-29T13:11:15;1.70;;;1.45;;
44145;SDS011;29809;52.432;4.780;2024-03-29T13:13:40;1.90;;;1.50;;
44145;SDS011;29809;52.432;4.780;2024-03-29T13:16:05;1.92;;;1.40;;
44145;SDS011;29809;52.432;4.780;2024-03-29T13:18:31;3.97;;;1.50;;
44145;SDS011;29809;52.432;4.780;2024-03-29T13:20:56;3.25;;;1.63;;
44145;SDS011;29809;52.432;4.780;2024-03-29T13:23:24;1.92;;;1.50;;
44145;SDS011;29809;52.432;4.780;2024-03-29T13:25:50;2.35;;;1.73;;
44145;SDS011;29809;52.432;4.780;2024-03-29T13:28:18;2.22;;;1.40;;
44145;SDS011;29809;52.432;4.780;2024-03-29T13:30:43;1.83;;;1.30;;
44145;SDS011;29809;52.432;4.780;2024-03-29T13:33:10;2.90;;;1.92;;
44145;SDS011;29809;52.432;4.780;2024-03-29T13:35:36;1.58;;;1.48;;
44145;SDS011;29809;52.432;4.780;2024-03-29T13:38:01;2.53;;;1.83;;
44145;SDS011;29809;52.432;4.780;2024-03-29T13:40:26;2.03;;;1.80;;
44145;SDS011;29809;52.432;4.780;2024-03-29T13:42:52;1.80;;;1.60;;
44145;SDS011;29809;52.432;4.780;2024-03-29T13:45:17;2.20;;;2.00;;
44145;SDS011;29809;52.432;4.780;2024-03-29T13:47:43;1.70;;;1.60;;
44145;SDS011;29809;52.432;4.780;2024-03-29T13:50:09;2.38;;;1.80;;
44145;SDS011;29809;52.432;4.780;2024-03-29T13:52:35;2.08;;;1.88;;
44145;SDS011;29809;52.432;4.780;2024-03-29T13:55:01;2.63;;;1.73;;
44145;SDS011;29809;52.432;4.780;2024-03-29T13:57:26;2.20;;;1.67;;
44145;SDS011;29809;52.432;4.780;2024-03-29T13:59:51;3.80;;;2.58;;
44145;SDS011;29809;52.432;4.780;2024-03-29T14:02:17;1.85;;;1.70;;
44145;SDS011;29809;52.432;4.780;2024-03-29T14:04:46;3.35;;;1.90;;
44145;SDS011;29809;52.432;4.780;2024-03-29T14:07:12;2.50;;;1.80;;
44145;SDS011;29809;52.432;4.780;2024-03-29T14:09:38;1.90;;;1.60;;
44145;SDS011;29809;52.432;4.780;2024-03-29T14:12:04;6.00;;;1.83;;
44145;SDS011;29809;52.432;4.780;2024-03-29T14:14:30;1.90;;;1.70;;
44145;SDS011;29809;52.432;4.780;2024-03-29T14:16:55;1.85;;;1.38;;
44145;SDS011;29809;52.432;4.780;2024-03-29T14:19:20;2.15;;;1.70;;
44145;SDS011;29809;52.432;4.780;2024-03-29T14:21:46;4.43;;;1.70;;
44145;SDS011;29809;52.432;4.780;2024-03-29T14:24:11;2.58;;;1.60;;
44145;SDS011;29809;52.432;4.780;2024-03-29T14:26:36;3.22;;;1.25;;
44145;SDS011;29809;52.432;4.780;2024-03-29T14:29:01;3.47;;;1.60;;
44145;SDS011;29809;52.432;4.780;2024-03-29T14:31:26;2.50;;;1.35;;
44145;SDS011;29809;52.432;4.780;2024-03-29T14:33:52;3.88;;;1.45;;
44145;SDS011;29809;52.432;4.780;2024-03-29T14:36:17;2.13;;;1.40;;
44145;SDS011;29809;52.432;4.780;2024-03-29T14:38:43;1.40;;;1.30;;
44145;SDS011;29809;52.432;4.780;2024-03-29T14:41:09;4.22;;;1.40;;